Time;durP1;ratioP1;P1;durP2;ratioP2;P2;SDS_P1;SDS_P2;PMS_P1;PMS_P2;Temp;Humidity;BMP_temperature;BMP_pressure;BME280_temperature;BME280_humidity;BME280_pressure;Samples;Min_cycle;Max_cycle;Signal;HPM_P1;HPM_P2
2022/01/31 00:02:05;;;;;;;12.57;11.70;;;;;;;1.74;60.21;92613.41;5048929;28;20212;-75
2022/01/31 00:04:30;;;;;;;16.70;12.87;;;;;;;1.67;60.65;92604.03;5047852;28;20231;-76
2022/01/31 00:06:57;;;;;;;15.37;10.93;;;;;;;1.76;61.14;92601.13;5048276;28;20186;-75
2022/01/31 00:09:23;;;;;;;15.20;11.77;;;;;;;1.85;60.49;92617.78;5049078;28;20224;-75
2022/01/31 00:12:05;;;;;;;13.47;12.20;;;;;;;1.75;59.83;92607.25;5048047;28;20190;-75
2022/01/31 00:17:03;;;;;;;20.97;11.60;;;;;;;1.99;58.82;92617.31;5047519;28;20196;-76
2022/01/31 00:19:29;;;;;;;25.97;16.07;;;;;;;1.78;58.40;92579.28;5049351;28;20225;-75
2022/01/31 00:21:55;;;;;;;24.50;11.77;;;;;;;1.84;59.15;92606.69;5048533;28;20221;-75
2022/01/31 00:24:20;;;;;;;15.43;13.40;;;;;;;1.95;58.48;92610.25;5048324;28;20242;-75
2022/01/31 00:26:46;;;;;;;18.67;17.27;;;;;;;1.90;58.08;92612.72;5049239;28;20254;-75
2022/01/31 00:29:11;;;;;;;17.47;14.50;;;;;;;1.81;58.69;92591.69;5046818;28;20234;-76
2022/01/31 00:31:36;;;;;;;18.40;11.53;;;;;;;1.92;59.11;92613.28;5047865;28;20194;-75
2022/01/31 00:34:02;;;;;;;16.43;14.53;;;;;;;1.88;59.67;92614.75;5047904;28;20252;-75
2022/01/31 00:36:27;;;;;;;15.87;12.27;;;;;;;1.70;59.22;92589.16;5049779;28;20198;-75
2022/01/31 00:38:53;;;;;;;14.33;13.17;;;;;;;1.85;59.89;92603.13;5052064;28;20225;-76
2022/01/31 00:41:18;;;;;;;17.20;15.57;;;;;;;1.58;58.98;92581.44;5051838;28;20235;-75
2022/01/31 00:43:55;;;;;;;14.23;12.43;;;;;;;1.86;59.50;92621.91;5051111;28;20281;-75
2022/01/31 00:46:26;;;;;;;14.87;9.90;;;;;;;1.68;60.46;92621.00;5052591;28;20219;-75
2022/01/31 00:48:51;;;;;;;15.67;14.37;;;;;;;1.76;62.30;92621.69;5050900;28;20205;-75
2022/01/31 00:51:17;;;;;;;16.77;11.40;;;;;;;1.78;61.29;92640.25;5051669;28;20483;-75
2022/01/31 00:53:43;;;;;;;18.13;11.73;;;;;;;1.59;60.20;92621.56;5051376;28;20693;-75
2022/01/31 00:56:09;;;;;;;19.93;17.97;;;;;;;1.77;60.38;92647.22;5050876;28;20197;-76
2022/01/31 00:58:34;;;;;;;17.27;11.43;;;;;;;1.80;61.48;92640.81;5051264;28;20193;-75
2022/01/31 01:01:00;;;;;;;22.20;12.83;;;;;;;1.75;60.54;92638.91;5051235;28;20221;-75
2022/01/31 01:03:25;;;;;;;15.23;13.43;;;;;;;1.61;60.44;92619.56;5051433;28;20198;-76
2022/01/31 01:05:51;;;;;;;16.33;11.33;;;;;;;1.68;60.53;92633.88;5051336;28;20298;-75
2022/01/31 01:08:16;;;;;;;17.90;11.40;;;;;;;1.81;59.78;92663.75;5051439;28;20202;-75
2022/01/31 01:10:41;;;;;;;13.10;11.80;;;;;;;1.84;60.09;92653.00;5051569;28;20230;-75
2022/01/31 01:13:07;;;;;;;14.50;13.30;;;;;;;1.80;59.98;92649.31;5052423;28;20174;-75
2022/01/31 01:15:32;;;;;;;18.00;10.30;;;;;;;1.81;59.81;92634.66;5050690;28;20255;-75
2022/01/31 01:17:58;;;;;;;15.03;12.03;;;;;;;1.78;59.38;92629.94;5051469;28;20186;-75
2022/01/31 01:20:24;;;;;;;17.97;10.87;;;;;;;1.80;59.45;92645.97;5050581;28;20231;-75
2022/01/31 01:22:50;;;;;;;12.43;11.00;;;;;;;1.91;64.74;92638.25;5051288;28;20245;-75
2022/01/31 01:25:16;;;;;;;13.50;10.57;;;;;;;1.74;59.57;92649.44;5051521;28;20218;-75
2022/01/31 01:27:43;;;;;;;14.17;13.10;;;;;;;1.67;59.96;92634.91;5050402;28;20249;-75
2022/01/31 01:30:10;;;;;;;11.90;10.70;;;;;;;1.85;60.52;92646.88;5049842;28;20233;-75
2022/01/31 01:32:46;;;;;;;15.63;11.43;;;;;;;1.73;60.34;92640.94;5049824;28;20189;-75
2022/01/31 01:35:12;;;;;;;14.37;11.47;;;;;;;1.79;60.50;92623.81;5049440;28;20213;-75
2022/01/31 01:37:38;;;;;;;19.83;12.40;;;;;;;1.82;61.55;92625.94;5051328;28;20217;-75
2022/01/31 01:40:05;;;;;;;13.87;12.73;;;;;;;1.70;59.99;92625.16;5050166;28;20249;-75
2022/01/31 01:42:30;;;;;;;14.63;10.97;;;;;;;1.58;60.09;92615.66;5050805;28;20225;-75
2022/01/31 16:10:55;;;;;;;15.53;11.63;;;;;;;1.16;57.76;91989.56;5065731;27;20882;-82
2022/01/31 16:13:21;;;;;;;13.60;12.23;;;;;;;1.27;57.03;91959.63;5045230;28;20190;-80
2022/01/31 16:15:51;;;;;;;12.77;10.07;;;;;;;1.58;56.70;91990.63;5045530;28;20261;-83
2022/01/31 16:18:18;;;;;;;11.90;10.83;;;;;;;1.86;55.75;91981.13;5045480;28;20941;-88
2022/01/31 16:20:45;;;;;;;14.70;13.40;;;;;;;1.99;55.06;91980.78;5042994;28;20230;-80
2022/01/31 16:23:11;;;;;;;15.30;11.97;;;;;;;1.98;55.32;91972.25;5044022;28;20258;-80
2022/01/31 16:25:39;;;;;;;21.07;14.73;;;;;;;1.93;54.55;91938.00;5042540;28;20234;-77
2022/01/31 16:28:05;;;;;;;16.57;14.83;;;;;;;2.10;54.76;91965.16;5044479;28;20224;-79
2022/01/31 16:30:32;;;;;;;23.73;14.17;;;;;;;2.07;55.07;91952.78;5043343;28;20230;-80
2022/01/31 16:32:58;;;;;;;21.20;15.90;;;;;;;2.02;55.37;91962.28;5043886;28;20204;-77
2022/01/31 16:35:24;;;;;;;16.23;13.27;;;;;;;2.24;54.25;91950.13;5045209;28;20265;-80
2022/01/31 16:37:51;;;;;;;21.47;15.33;;;;;;;2.43;54.17;91946.19;5043660;28;20192;-79
2022/01/31 16:40:17;;;;;;;18.50;15.13;;;;;;;2.39;53.69;91943.31;5045417;28;20235;-82
2022/01/31 16:42:45;;;;;;;23.70;14.87;;;;;;;2.25;53.77;91905.31;5044475;28;20314;-81
2022/01/31 16:45:12;;;;;;;21.30;15.47;;;;;;;2.33;54.36;91925.47;5042722;28;20222;-82
2022/01/31 16:47:48;;;;;;;34.83;17.77;;;;;;;2.28;54.06;91915.13;5044651;28;20209;-78
2022/01/31 16:50:18;;;;;;;34.27;18.53;;;;;;;2.56;53.83;91917.41;5044485;28;20237;-80
2022/01/31 16:52:44;;;;;;;32.97;17.90;;;;;;;2.14;54.77;91921.72;5046778;28;20210;-81
2022/01/31 16:55:12;;;;;;;21.27;15.77;;;;;;;1.94;56.68;91908.66;5045201;28;20248;-78
2022/01/31 16:57:40;;;;;;;19.53;16.87;;;;;;;1.80;58.96;91898.00;5044656;28;20214;-81
2022/01/31 17:00:09;;;;;;;18.80;16.23;;;;;;;2.06;57.81;91875.81;5043847;28;20241;-88
2022/01/31 17:02:35;;;;;;;28.23;18.10;;;;;;;2.06;57.22;91901.56;5044739;28;20178;-83
2022/01/31 17:05:00;;;;;;;27.67;18.23;;;;;;;1.81;59.04;91898.75;5032425;28;20245;-81
2022/01/31 17:07:26;;;;;;;35.23;19.97;;;;;;;1.84;56.84;91839.88;5024082;28;20205;-82
2022/01/31 17:09:51;;;;;;;29.83;21.47;;;;;;;2.37;56.41;91880.97;5034252;28;20221;-80
2022/01/31 17:12:17;;;;;;;24.40;18.73;;;;;;;2.21;54.91;91855.34;5043764;28;20191;-78
2022/01/31 17:14:44;;;;;;;33.10;20.77;;;;;;;1.89;56.29;91837.34;5074350;28;20289;-79
2022/01/31 17:17:11;;;;;;;28.20;19.53;;;;;;;2.32;55.67;91859.56;5044551;28;20191;-83
2022/01/31 17:19:37;;;;;;;29.37;20.10;;;;;;;2.18;54.65;91832.69;5042682;28;20218;-84
2022/01/31 17:22:03;;;;;;;38.20;21.97;;;;;;;2.24;55.31;91852.28;5032473;28;20189;-85
2022/01/31 17:24:28;;;;;;;33.97;22.63;;;;;;;2.03;55.97;91850.56;5030182;28;20226;-81
2022/01/31 17:26:54;;;;;;;32.03;21.10;;;;;;;2.17;54.59;91849.91;5030324;28;20206;-78
2022/01/31 17:29:19;;;;;;;27.67;18.90;;;;;;;1.89;56.42;91837.34;5030849;28;20218;-78
2022/01/31 17:31:45;;;;;;;19.77;16.63;;;;;;;1.94;55.91;91841.75;5030189;28;20258;-79
2022/01/31 17:34:10;;;;;;;20.10;16.70;;;;;;;1.66;57.30;91832.50;5033162;28;20244;-78
2022/01/31 17:36:36;;;;;;;19.83;17.37;;;;;;;1.74;57.32;91851.88;5031127;28;20283;-79
2022/01/31 17:39:20;;;;;;;16.63;15.07;;;;;;;1.49;57.85;91848.03;5028600;28;20265;-79
2022/01/31 17:41:46;;;;;;;16.87;14.33;;;;;;;1.38;58.12;91846.41;5030710;28;20202;-77
2022/01/31 17:44:21;;;;;;;17.53;15.73;;;;;;;1.47;58.25;91839.00;5030317;28;20222;-80
2022/01/31 17:46:48;;;;;;;19.57;16.27;;;;;;;1.67;57.78;91843.59;5030927;28;20253;-78
2022/01/31 17:49:14;;;;;;;16.30;14.37;;;;;;;1.27;57.39;91826.75;5029987;28;20276;-78
2022/01/31 17:51:40;;;;;;;16.37;14.37;;;;;;;1.71;56.07;91849.78;5030113;28;20206;-76
2022/01/31 17:54:06;;;;;;;27.33;19.43;;;;;;;1.76;54.17;91840.31;5028500;28;20230;-77
2022/01/31 17:56:33;;;;;;;22.23;17.97;;;;;;;1.30;55.65;91846.81;5028792;28;20183;-80
2022/01/31 17:59:00;;;;;;;21.47;16.43;;;;;;;1.46;57.96;91845.19;5029441;28;20218;-80
2022/01/31 18:01:26;;;;;;;25.43;20.90;;;;;;;1.10;57.14;91820.91;5031794;28;20195;-80
2022/01/31 18:03:52;;;;;;;24.40;18.03;;;;;;;1.39;58.29;91832.50;5029097;28;20214;-83
2022/01/31 18:06:17;;;;;;;22.63;18.03;;;;;;;1.21;58.81;91820.00;5062071;28;20242;-79
2022/01/31 18:08:43;;;;;;;20.40;17.53;;;;;;;1.28;58.17;91820.56;5040360;28;20215;-78
2022/01/31 18:11:08;;;;;;;17.50;14.17;;;;;;;1.37;56.76;91806.25;5021935;28;20194;-77
2022/01/31 18:13:34;;;;;;;22.27;18.23;;;;;;;1.38;54.71;91822.47;5026768;28;20195;-74
2022/01/31 18:15:59;;;;;;;29.73;18.43;;;;;;;1.46;56.13;91835.66;5029864;28;20194;-75
2022/01/31 18:18:25;;;;;;;23.63;15.37;;;;;;;1.24;55.30;91796.38;5027924;28;20254;-74
2022/01/31 18:20:50;;;;;;;18.17;14.10;;;;;;;1.51;55.13;91843.44;5027855;28;20226;-77
2022/01/31 18:23:16;;;;;;;17.70;14.23;;;;;;;1.11;55.80;91813.94;5029505;28;20190;-78
2022/01/31 18:25:42;;;;;;;15.20;13.30;;;;;;;1.13;57.65;91828.13;5027717;28;20231;-76
2022/01/31 18:28:07;;;;;;;16.90;13.70;;;;;;;1.30;56.45;91828.81;5029279;28;20205;-77
2022/01/31 18:30:39;;;;;;;20.60;16.67;;;;;;;1.73;55.06;91840.03;5028336;28;20233;-76
2022/01/31 18:33:08;;;;;;;23.20;18.57;;;;;;;1.39;56.56;91839.44;5028014;28;20187;-75
2022/01/31 18:35:36;;;;;;;22.30;16.03;;;;;;;1.59;54.51;91829.34;5030423;28;20257;-76
2022/01/31 18:38:04;;;;;;;20.73;15.90;;;;;;;1.47;54.51;91813.31;5029963;28;20210;-76
2022/01/31 18:40:31;;;;;;;17.93;16.03;;;;;;;1.64;55.19;91837.91;5027726;28;20231;-75
2022/01/31 18:42:57;;;;;;;22.13;15.07;;;;;;;1.73;55.06;91834.91;5029218;28;20209;-75
2022/01/31 18:45:22;;;;;;;18.50;14.43;;;;;;;1.46;55.26;91820.22;5029067;28;20231;-75
2022/01/31 18:47:54;;;;;;;17.57;13.67;;;;;;;1.67;54.28;91837.41;5029029;28;20221;-78
2022/01/31 18:50:25;;;;;;;20.57;15.03;;;;;;;1.62;54.26;91818.56;5026467;28;20222;-77
2022/01/31 18:52:53;;;;;;;15.97;13.33;;;;;;;1.71;54.66;91836.94;5027816;28;20250;-77
2022/01/31 18:55:18;;;;;;;15.17;13.57;;;;;;;1.70;54.70;91837.94;5029418;28;20218;-80
2022/01/31 18:57:44;;;;;;;15.20;13.77;;;;;;;1.40;55.39;91825.59;5028670;28;20285;-80
2022/01/31 19:00:10;;;;;;;14.47;12.77;;;;;;;1.67;54.96;91842.56;5029277;28;20238;-81
2022/01/31 19:02:36;;;;;;;13.53;12.40;;;;;;;0.89;55.02;91695.03;5028668;28;20222;-80
2022/01/31 19:05:03;;;;;;;13.93;12.73;;;;;;;1.54;55.74;91812.06;5027724;28;20287;-81
2022/01/31 19:07:28;;;;;;;13.80;12.50;;;;;;;1.36;56.93;91809.84;5028285;28;20191;-81
2022/01/31 19:09:54;;;;;;;17.77;13.47;;;;;;;1.41;56.55;91799.63;5028802;28;20448;-82
2022/01/31 19:12:26;;;;;;;13.33;12.33;;;;;;;1.07;57.30;91790.56;5028525;28;20227;-79
2022/01/31 19:17:17;;;;;;;18.50;13.03;;;;;;;0.89;56.55;91767.72;5028263;28;20190;-80
2022/01/31 19:19:43;;;;;;;14.93;13.40;;;;;;;1.12;56.30;91821.41;5025818;28;20223;-83
2022/01/31 19:22:09;;;;;;;15.13;13.80;;;;;;;0.36;59.60;91769.44;5026276;28;20270;-81
2022/01/31 19:24:35;;;;;;;24.60;20.63;;;;;;;1.04;57.39;91826.22;5027909;28;20222;-82
2022/01/31 19:27:02;;;;;;;23.70;16.40;;;;;;;1.11;57.12;91817.31;5027723;28;20262;-85
2022/01/31 19:29:27;;;;;;;17.60;15.20;;;;;;;1.16;56.98;91829.44;5028164;28;20297;-79
2022/01/31 19:31:54;;;;;;;23.83;16.53;;;;;;;1.03;57.47;91796.38;5029860;28;20190;-79
2022/01/31 19:34:20;;;;;;;30.40;21.63;;;;;;;1.10;57.56;91800.34;5028480;28;20260;-77
2022/01/31 19:36:45;;;;;;;55.97;32.93;;;;;;;1.02;57.03;91797.41;5028379;28;20202;-79
2022/01/31 19:44:34;;;;;;;48.57;26.73;;;;;;;1.03;57.44;91819.50;5026148;28;20306;-77
2022/01/31 19:46:59;;;;;;;46.50;25.83;;;;;;;0.99;57.29;91814.09;5027126;28;20183;-75
2022/01/31 19:49:26;;;;;;;37.90;22.13;;;;;;;1.07;56.93;91805.97;5029093;28;20294;-75
2022/01/31 19:51:52;;;;;;;20.90;17.63;;;;;;;0.94;57.52;91790.13;5028501;28;20220;-75
2022/01/31 19:54:18;;;;;;;28.00;18.40;;;;;;;0.96;58.32;91806.88;5028336;28;20231;-75
2022/01/31 19:56:44;;;;;;;34.17;19.93;;;;;;;1.01;57.43;91783.78;5024756;28;20195;-75
2022/01/31 19:59:10;;;;;;;23.47;17.33;;;;;;;0.96;58.22;91803.53;5026059;28;20222;-76
2022/01/31 20:01:36;;;;;;;18.77;16.20;;;;;;;1.18;57.52;91802.47;5029242;28;20191;-77
2022/01/31 20:04:02;;;;;;;28.67;18.77;;;;;;;1.06;57.87;91783.84;5027646;28;20256;-77
2022/01/31 20:06:28;;;;;;;30.17;19.30;;;;;;;0.64;60.36;91790.56;5027768;28;20820;-89
2022/01/31 20:09:09;;;;;;;38.73;23.50;;;;;;;0.23;57.99;91670.47;5028032;28;20230;-90
2022/01/31 20:11:35;;;;;;;34.40;22.10;;;;;;;0.91;58.19;91775.97;5029564;28;20268;-77
2022/01/31 20:14:00;;;;;;;33.23;24.37;;;;;;;0.93;57.61;91771.38;5027635;28;20236;-77
2022/01/31 20:16:27;;;;;;;29.13;20.67;;;;;;;0.84;58.91;91770.25;5030119;28;20175;-79
2022/01/31 20:18:53;;;;;;;26.37;20.20;;;;;;;0.95;58.37;91771.16;5026351;28;20247;-78
2022/01/31 20:21:24;;;;;;;31.40;18.50;;;;;;;0.83;58.51;91763.56;5025550;28;20201;-78
2022/01/31 20:23:56;;;;;;;26.03;17.17;;;;;;;0.94;58.73;91778.06;5027184;28;20706;-77
2022/01/31 20:26:24;;;;;;;22.53;16.80;;;;;;;0.88;58.58;91773.13;5026187;28;20336;-78
2022/01/31 20:28:50;;;;;;;17.13;15.20;;;;;;;1.12;57.78;91767.44;5026595;28;21096;-77
2022/01/31 20:31:18;;;;;;;21.90;15.57;;;;;;;1.18;57.55;91768.28;5025762;28;20199;-78
2022/01/31 20:33:46;;;;;;;17.70;15.63;;;;;;;1.12;57.81;91759.75;5026979;28;20186;-78
2022/01/31 20:36:14;;;;;;;22.43;18.10;;;;;;;0.90;59.69;91764.13;5027245;28;20217;-82
2022/01/31 20:38:49;;;;;;;20.10;16.57;;;;;;;0.90;58.36;91747.97;5025667;28;20183;-81
2022/01/31 20:41:23;;;;;;;18.67;16.17;;;;;;;0.86;56.90;91747.66;5026387;28;20183;-78
2022/01/31 20:43:50;;;;;;;18.23;16.43;;;;;;;0.84;58.35;91762.53;5025189;28;20198;-78
2022/01/31 20:46:17;;;;;;;26.83;17.43;;;;;;;0.91;57.59;91752.06;5024081;28;20189;-75
2022/01/31 20:48:44;;;;;;;15.20;13.70;;;;;;;1.09;57.15;91767.19;5026793;28;20209;-76
2022/01/31 20:51:10;;;;;;;17.57;14.43;;;;;;;0.93;58.52;91761.13;5026074;28;20190;-76
2022/01/31 20:53:36;;;;;;;16.47;14.90;;;;;;;1.08;58.13;91775.91;5026180;28;20190;-76
2022/01/31 20:56:04;;;;;;;15.33;13.87;;;;;;;1.19;58.33;91768.06;5029899;28;20191;-76
2022/01/31 20:58:29;;;;;;;15.37;13.67;;;;;;;1.17;57.06;91744.38;5029940;28;20227;-76
2022/01/31 21:00:56;;;;;;;16.23;12.87;;;;;;;1.18;56.46;91735.63;5031020;28;20245;-76
2022/01/31 21:03:23;;;;;;;18.43;14.07;;;;;;;1.40;56.29;91753.59;5029281;28;20187;-76
2022/01/31 21:05:52;;;;;;;13.97;12.60;;;;;;;1.07;56.13;91739.16;5030161;28;20225;-77
2022/01/31 21:08:27;;;;;;;14.57;13.00;;;;;;;0.85;59.21;91750.47;5030377;28;20179;-76
2022/01/31 21:10:54;;;;;;;18.27;14.90;;;;;;;1.26;57.62;91745.47;5029724;28;20249;-77
2022/01/31 21:13:20;;;;;;;17.50;15.53;;;;;;;1.31;56.65;91742.97;5026438;28;20202;-77
2022/01/31 21:15:47;;;;;;;17.17;14.03;;;;;;;0.69;59.40;91729.00;5029708;28;20223;-77
2022/01/31 21:18:13;;;;;;;19.67;16.23;;;;;;;1.10;56.83;91743.81;5032438;28;20190;-77
2022/01/31 21:20:38;;;;;;;19.77;15.03;;;;;;;1.02;56.69;91730.63;5031272;28;20257;-76
2022/01/31 21:23:04;;;;;;;19.73;13.77;;;;;;;1.25;55.91;91735.44;5029955;28;20205;-77
2022/01/31 21:25:30;;;;;;;19.00;15.07;;;;;;;1.26;56.50;91742.91;5031244;28;20222;-77
2022/01/31 21:27:56;;;;;;;15.77;13.97;;;;;;;1.26;55.99;91731.88;5030615;28;20197;-80
2022/01/31 21:30:23;;;;;;;14.67;12.67;;;;;;;1.06;56.14;91741.97;5030605;28;20293;-78
2022/01/31 21:32:50;;;;;;;14.17;11.97;;;;;;;0.69;57.99;91697.38;5032374;28;20187;-79
2022/01/31 21:35:17;;;;;;;64.90;29.37;;;;;;;1.08;57.80;91717.56;5030926;28;20219;-79
2022/01/31 21:37:47;;;;;;;31.73;17.50;;;;;;;0.94;57.08;91697.66;5032313;28;20195;-79
2022/01/31 21:40:14;;;;;;;19.90;15.77;;;;;;;0.84;58.42;91716.31;5030003;28;20226;-79
2022/01/31 21:42:39;;;;;;;18.57;14.60;;;;;;;1.21;57.49;91706.91;5032228;28;20217;-78
2022/01/31 21:45:07;;;;;;;17.63;14.07;;;;;;;1.31;57.05;91701.84;5030896;28;20246;-79
2022/01/31 21:47:34;;;;;;;12.30;11.17;;;;;;;1.19;56.18;91690.16;5031103;28;20195;-79
2022/01/31 21:50:02;;;;;;;13.83;12.03;;;;;;;0.87;57.75;91702.97;5030377;28;20262;-79
2022/01/31 21:52:28;;;;;;;14.63;11.90;;;;;;;0.52;59.47;91633.31;5030985;28;20281;-80
2022/01/31 21:54:53;;;;;;;14.70;13.23;;;;;;;0.74;57.68;91687.97;5030900;28;20234;-81
2022/01/31 21:57:23;;;;;;;13.13;11.87;;;;;;;0.89;57.77;91690.66;5032630;28;21078;-81
2022/01/31 21:59:49;;;;;;;19.73;12.60;;;;;;;0.80;59.49;91681.84;5031590;28;20257;-80
2022/01/31 22:02:15;;;;;;;15.33;13.87;;;;;;;0.70;58.51;91665.56;5031082;28;20191;-80
2022/01/31 22:04:40;;;;;;;15.63;12.60;;;;;;;0.60;58.92;91666.25;5031532;28;20276;-80
2022/01/31 22:07:06;;;;;;;17.77;14.37;;;;;;;0.93;58.00;91680.69;5032952;28;20182;-81
2022/01/31 22:09:32;;;;;;;14.37;12.97;;;;;;;1.03;57.22;91681.56;5030400;28;20223;-81
2022/01/31 22:11:59;;;;;;;12.97;11.83;;;;;;;0.11;57.21;91546.66;5030651;28;20218;-81
2022/01/31 22:14:26;;;;;;;14.63;12.97;;;;;;;0.11;59.03;91621.03;5030691;28;20222;-81
2022/01/31 22:16:51;;;;;;;24.07;17.20;;;;;;;0.66;57.66;91667.06;5031355;28;20187;-80
2022/01/31 22:19:17;;;;;;;24.33;15.73;;;;;;;0.63;57.99;91665.75;5028720;28;20318;-80
2022/01/31 22:21:46;;;;;;;18.53;15.90;;;;;;;0.63;57.40;91670.91;5062191;28;20199;-81
2022/01/31 22:24:12;;;;;;;13.13;11.83;;;;;;;0.06;56.53;91628.72;5032019;28;20236;-81
2022/01/31 22:26:38;;;;;;;14.37;13.07;;;;;;;0.40;56.42;91645.50;5028563;28;20193;-81
2022/01/31 22:29:04;;;;;;;14.93;13.63;;;;;;;0.55;56.04;91673.91;5028261;28;20227;-81
2022/01/31 22:31:32;;;;;;;15.63;14.33;;;;;;;0.55;56.87;91668.75;5031933;28;20183;-81
2022/01/31 22:34:01;;;;;;;13.10;11.83;;;;;;;0.33;57.37;91664.69;5029637;28;20256;-82
2022/01/31 22:36:28;;;;;;;12.73;11.63;;;;;;;0.44;56.92;91663.75;5059582;28;20210;-81
2022/01/31 22:38:55;;;;;;;11.60;10.60;;;;;;;0.31;55.99;91662.34;5027991;28;20269;-81
2022/01/31 22:41:21;;;;;;;10.07;9.33;;;;;;;0.20;54.55;91645.28;5030412;28;20258;-81
2022/01/31 22:43:47;;;;;;;12.40;11.50;;;;;;;0.27;55.60;91630.47;5030157;28;20191;-81
2022/01/31 22:46:13;;;;;;;11.17;10.27;;;;;;;0.19;55.41;91607.03;5029788;28;20194;-80
2022/01/31 22:48:38;;;;;;;11.27;10.57;;;;;;;0.51;56.07;91659.22;5027228;28;20195;-81
2022/01/31 22:51:04;;;;;;;10.37;9.53;;;;;;;0.09;55.82;91612.84;5027828;28;20259;-81
2022/01/31 22:53:29;;;;;;;10.23;9.50;;;;;;;-0.81;58.27;91532.28;5029782;28;20213;-81
2022/01/31 22:55:55;;;;;;;10.87;10.23;;;;;;;0.32;56.87;91663.91;5030324;28;20269;-81
2022/01/31 22:58:20;;;;;;;10.60;9.90;;;;;;;0.28;56.12;91656.91;5027865;28;20332;-81
2022/01/31 23:00:46;;;;;;;12.00;10.93;;;;;;;-0.11;56.02;91597.22;5028206;28;20310;-81
2022/01/31 23:03:11;;;;;;;11.20;10.10;;;;;;;0.30;56.14;91663.34;5030616;28;20247;-81
2022/01/31 23:05:37;;;;;;;10.07;8.70;;;;;;;0.30;56.22;91655.66;5029176;28;20250;-81
2022/01/31 23:08:03;;;;;;;11.77;10.93;;;;;;;0.05;56.67;91616.13;5030444;28;20187;-81
2022/01/31 23:10:28;;;;;;;12.20;11.30;;;;;;;-0.02;56.76;91600.91;5027769;28;20242;-81
2022/01/31 23:12:54;;;;;;;12.67;11.50;;;;;;;-0.11;58.92;91651.84;5028553;28;20211;-81
2022/01/31 23:15:39;;;;;;;13.03;11.73;;;;;;;0.08;58.90;91651.56;5028933;28;20249;-81
2022/01/31 23:18:15;;;;;;;16.77;14.47;;;;;;;0.35;57.11;91658.28;5029460;28;20417;-81
